sensor_id;sensor_type;location;lat;lon;timestamp;temperature;humidity
22666;DHT22;11499;49.486;11.104;2022-10-31T00:00:48;10.70;99.90
22666;DHT22;11499;49.486;11.104;2022-10-31T00:03:14;10.60;99.90
22666;DHT22;11499;49.486;11.104;2022-10-31T00:05:42;10.60;99.90
22666;DHT22;11499;49.486;11.104;2022-10-31T00:08:07;10.50;99.90
22666;DHT22;11499;49.486;11.104;2022-10-31T00:10:33;10.50;99.90
22666;DHT22;11499;49.486;11.104;2022-10-31T00:12:58;10.50;99.90
22666;DHT22;11499;49.486;11.104;2022-10-31T00:18:07;10.50;99.90
22666;DHT22;11499;49.486;11.104;2022-10-31T00:20:33;10.50;99.90
22666;DHT22;11499;49.486;11.104;2022-10-31T00:22:59;10.50;99.90
22666;DHT22;11499;49.486;11.104;2022-10-31T00:25:26;10.40;99.90
22666;DHT22;11499;49.486;11.104;2022-10-31T00:27:52;10.40;99.90
22666;DHT22;11499;49.486;11.104;2022-10-31T00:30:17;10.30;99.90
22666;DHT22;11499;49.486;11.104;2022-10-31T00:32:43;10.20;99.90
22666;DHT22;11499;49.486;11.104;2022-10-31T00:35:08;10.20;99.90
22666;DHT22;11499;49.486;11.104;2022-10-31T00:37:34;10.10;99.90
22666;DHT22;11499;49.486;11.104;2022-10-31T00:40:00;10.00;99.90
22666;DHT22;11499;49.486;11.104;2022-10-31T00:45:04;10.00;99.90
22666;DHT22;11499;49.486;11.104;2022-10-31T00:47:29;9.80;99.90
22666;DHT22;11499;49.486;11.104;2022-10-31T00:49:55;9.80;99.90
22666;DHT22;11499;49.486;11.104;2022-10-31T00:52:20;9.70;99.90
22666;DHT22;11499;49.486;11.104;2022-10-31T00:54:46;9.60;99.90
22666;DHT22;11499;49.486;11.104;2022-10-31T00:57:11;9.70;99.90
22666;DHT22;11499;49.486;11.104;2022-10-31T00:59:37;9.70;99.90
22666;DHT22;11499;49.486;11.104;2022-10-31T01:02:02;9.60;99.90
22666;DHT22;11499;49.486;11.104;2022-10-31T01:04:29;9.60;99.90
22666;DHT22;11499;49.486;11.104;2022-10-31T01:06:54;9.60;99.90
22666;DHT22;11499;49.486;11.104;2022-10-31T01:12:00;9.60;99.90
22666;DHT22;11499;49.486;11.104;2022-10-31T01:14:26;9.60;99.90
22666;DHT22;11499;49.486;11.104;2022-10-31T01:16:51;9.70;99.90
22666;DHT22;11499;49.486;11.104;2022-10-31T01:19:16;9.80;99.90
22666;DHT22;11499;49.486;11.104;2022-10-31T01:21:42;9.90;99.90
22666;DHT22;11499;49.486;11.104;2022-10-31T01:24:08;9.90;99.90
22666;DHT22;11499;49.486;11.104;2022-10-31T01:26:34;9.90;99.90
22666;DHT22;11499;49.486;11.104;2022-10-31T01:29:02;10.00;99.90
22666;DHT22;11499;49.486;11.104;2022-10-31T01:31:31;10.00;99.90
22666;DHT22;11499;49.486;11.104;2022-10-31T01:33:57;9.90;99.90
22666;DHT22;11499;49.486;11.104;2022-10-31T01:39:05;9.90;99.90
22666;DHT22;11499;49.486;11.104;2022-10-31T01:41:34;9.90;99.90
22666;DHT22;11499;49.486;11.104;2022-10-31T01:44:02;9.80;99.90
22666;DHT22;11499;49.486;11.104;2022-10-31T01:46:37;9.80;99.90
22666;DHT22;11499;49.486;11.104;2022-10-31T01:49:09;9.90;99.90
22666;DHT22;11499;49.486;11.104;2022-10-31T01:51:40;9.80;99.90
22666;DHT22;11499;49.486;11.104;2022-10-31T01:54:10;9.80;99.90
22666;DHT22;11499;49.486;11.104;2022-10-31T01:56:40;9.70;99.90
22666;DHT22;11499;49.486;11.104;2022-10-31T01:59:09;9.70;99.90
22666;DHT22;11499;49.486;11.104;2022-10-31T02:01:36;9.70;99.90
22666;DHT22;11499;49.486;11.104;2022-10-31T02:10:22;9.80;99.90
22666;DHT22;11499;49.486;11.104;2022-10-31T02:12:51;9.70;99.90
22666;DHT22;11499;49.486;11.104;2022-10-31T02:15:18;9.70;99.90
22666;DHT22;11499;49.486;11.104;2022-10-31T02:17:44;9.60;99.90
22666;DHT22;11499;49.486;11.104;2022-10-31T02:28:28;9.60;99.90
22666;DHT22;11499;49.486;11.104;2022-10-31T02:31:13;9.40;99.90
22666;DHT22;11499;49.486;11.104;2022-10-31T02:37:47;9.10;99.90
22666;DHT22;11499;49.486;11.104;2022-10-31T02:40:22;9.10;99.90
22666;DHT22;11499;49.486;11.104;2022-10-31T02:43:02;9.00;99.90
22666;DHT22;11499;49.486;11.104;2022-10-31T02:45:47;8.90;99.90
22666;DHT22;11499;49.486;11.104;2022-10-31T02:48:20;8.90;99.90
22666;DHT22;11499;49.486;11.104;2022-10-31T02:50:56;8.90;99.90
22666;DHT22;11499;49.486;11.104;2022-10-31T02:53:23;8.80;99.90
22666;DHT22;11499;49.486;11.104;2022-10-31T02:58:20;8.70;99.90
22666;DHT22;11499;49.486;11.104;2022-10-31T03:02:38;8.70;99.90
22666;DHT22;11499;49.486;11.104;2022-10-31T03:05:19;8.70;99.90
22666;DHT22;11499;49.486;11.104;2022-10-31T03:08:10;8.60;99.90
22666;DHT22;11499;49.486;11.104;2022-10-31T03:10:47;8.60;99.90
22666;DHT22;11499;49.486;11.104;2022-10-31T03:16:09;8.50;99.90
22666;DHT22;11499;49.486;11.104;2022-10-31T03:18:52;8.50;99.90
22666;DHT22;11499;49.486;11.104;2022-10-31T03:21:23;8.50;99.90
22666;DHT22;11499;49.486;11.104;2022-10-31T03:23:53;8.50;99.90
22666;DHT22;11499;49.486;11.104;2022-10-31T03:29:03;8.60;99.90
22666;DHT22;11499;49.486;11.104;2022-10-31T03:31:32;8.60;99.90
22666;DHT22;11499;49.486;11.104;2022-10-31T03:34:00;8.60;99.90
22666;DHT22;11499;49.486;11.104;2022-10-31T03:36:26;8.50;99.90
22666;DHT22;11499;49.486;11.104;2022-10-31T03:38:54;8.40;99.90
22666;DHT22;11499;49.486;11.104;2022-10-31T03:41:24;8.50;99.90
22666;DHT22;11499;49.486;11.104;2022-10-31T03:43:56;8.50;99.90
22666;DHT22;11499;49.486;11.104;2022-10-31T03:46:24;8.50;99.90
22666;DHT22;11499;49.486;11.104;2022-10-31T03:48:50;8.60;99.90
22666;DHT22;11499;49.486;11.104;2022-10-31T03:56:46;8.50;99.90
22666;DHT22;11499;49.486;11.104;2022-10-31T03:59:28;8.40;99.90
22666;DHT22;11499;49.486;11.104;2022-10-31T04:01:59;8.40;99.90
22666;DHT22;11499;49.486;11.104;2022-10-31T04:04:26;8.30;99.90
22666;DHT22;11499;49.486;11.104;2022-10-31T04:06:53;8.30;99.90
22666;DHT22;11499;49.486;11.104;2022-10-31T04:09:20;8.20;99.90
22666;DHT22;11499;49.486;11.104;2022-10-31T04:11:51;8.20;99.90
22666;DHT22;11499;49.486;11.104;2022-10-31T04:14:18;8.20;99.90
22666;DHT22;11499;49.486;11.104;2022-10-31T04:16:44;8.20;99.90
22666;DHT22;11499;49.486;11.104;2022-10-31T04:19:13;8.20;99.90
22666;DHT22;11499;49.486;11.104;2022-10-31T04:24:13;8.20;99.90
22666;DHT22;11499;49.486;11.104;2022-10-31T04:26:39;8.10;99.90
22666;DHT22;11499;49.486;11.104;2022-10-31T04:29:04;8.10;99.90
22666;DHT22;11499;49.486;11.104;2022-10-31T04:31:30;8.00;99.90
22666;DHT22;11499;49.486;11.104;2022-10-31T04:33:55;8.00;99.90
22666;DHT22;11499;49.486;11.104;2022-10-31T04:36:21;7.90;99.90
22666;DHT22;11499;49.486;11.104;2022-10-31T04:38:46;7.90;99.90
22666;DHT22;11499;49.486;11.104;2022-10-31T04:41:12;7.90;99.90
22666;DHT22;11499;49.486;11.104;2022-10-31T04:43:37;7.80;99.90
22666;DHT22;11499;49.486;11.104;2022-10-31T04:46:03;7.80;99.90
22666;DHT22;11499;49.486;11.104;2022-10-31T04:51:20;7.80;99.90
22666;DHT22;11499;49.486;11.104;2022-10-31T04:53:46;7.80;99.90
22666;DHT22;11499;49.486;11.104;2022-10-31T04:56:11;7.80;99.90
22666;DHT22;11499;49.486;11.104;2022-10-31T04:58:37;7.70;99.90
22666;DHT22;11499;49.486;11.104;2022-10-31T05:01:02;7.70;99.90
22666;DHT22;11499;49.486;11.104;2022-10-31T05:03:28;7.70;99.90
22666;DHT22;11499;49.486;11.104;2022-10-31T05:05:53;7.70;99.90
22666;DHT22;11499;49.486;11.104;2022-10-31T05:08:19;7.60;99.90
22666;DHT22;11499;49.486;11.104;2022-10-31T05:10:44;7.60;99.90
22666;DHT22;11499;49.486;11.104;2022-10-31T05:13:10;7.60;99.90
22666;DHT22;11499;49.486;11.104;2022-10-31T05:17:36;7.60;99.90
22666;DHT22;11499;49.486;11.104;2022-10-31T05:20:02;7.70;99.90
22666;DHT22;11499;49.486;11.104;2022-10-31T05:22:27;7.80;99.90
22666;DHT22;11499;49.486;11.104;2022-10-31T05:24:53;7.90;99.90
22666;DHT22;11499;49.486;11.104;2022-10-31T05:27:18;7.90;99.90
22666;DHT22;11499;49.486;11.104;2022-10-31T05:29:44;8.00;99.90
22666;DHT22;11499;49.486;11.104;2022-10-31T05:32:09;8.10;99.90
22666;DHT22;11499;49.486;11.104;2022-10-31T05:34:34;8.10;99.90
22666;DHT22;11499;49.486;11.104;2022-10-31T05:37:00;8.20;99.90
22666;DHT22;11499;49.486;11.104;2022-10-31T05:39:25;8.20;99.90
22666;DHT22;11499;49.486;11.104;2022-10-31T05:44:34;8.10;99.90
22666;DHT22;11499;49.486;11.104;2022-10-31T05:47:00;8.10;99.90
22666;DHT22;11499;49.486;11.104;2022-10-31T05:49:25;8.00;99.90
22666;DHT22;11499;49.486;11.104;2022-10-31T05:51:51;8.10;99.90
22666;DHT22;11499;49.486;11.104;2022-10-31T05:54:16;8.10;99.90
22666;DHT22;11499;49.486;11.104;2022-10-31T05:56:42;8.10;99.90
22666;DHT22;11499;49.486;11.104;2022-10-31T05:59:07;8.10;99.90
22666;DHT22;11499;49.486;11.104;2022-10-31T06:01:33;8.00;99.90
22666;DHT22;11499;49.486;11.104;2022-10-31T06:03:58;7.90;99.90
22666;DHT22;11499;49.486;11.104;2022-10-31T06:06:24;7.90;99.90
22666;DHT22;11499;49.486;11.104;2022-10-31T06:11:48;7.90;99.90
22666;DHT22;11499;49.486;11.104;2022-10-31T06:14:13;7.90;99.90
22666;DHT22;11499;49.486;11.104;2022-10-31T06:16:39;8.00;99.90
22666;DHT22;11499;49.486;11.104;2022-10-31T06:19:05;8.10;99.90
22666;DHT22;11499;49.486;11.104;2022-10-31T06:21:30;8.10;99.90
22666;DHT22;11499;49.486;11.104;2022-10-31T06:23:56;8.10;99.90
22666;DHT22;11499;49.486;11.104;2022-10-31T06:26:21;8.10;99.90
22666;DHT22;11499;49.486;11.104;2022-10-31T06:28:47;8.10;99.90
22666;DHT22;11499;49.486;11.104;2022-10-31T06:31:12;8.10;99.90
22666;DHT22;11499;49.486;11.104;2022-10-31T06:33:41;8.20;99.90
22666;DHT22;11499;49.486;11.104;2022-10-31T06:39:06;8.30;99.90
22666;DHT22;11499;49.486;11.104;2022-10-31T06:41:32;8.40;99.90
22666;DHT22;11499;49.486;11.104;2022-10-31T06:43:57;8.40;99.90
22666;DHT22;11499;49.486;11.104;2022-10-31T06:46:23;8.50;99.90
22666;DHT22;11499;49.486;11.104;2022-10-31T06:48:48;8.60;99.90
22666;DHT22;11499;49.486;11.104;2022-10-31T06:51:14;8.70;99.90
22666;DHT22;11499;49.486;11.104;2022-10-31T06:53:39;8.80;99.90
22666;DHT22;11499;49.486;11.104;2022-10-31T06:56:05;8.90;99.90
22666;DHT22;11499;49.486;11.104;2022-10-31T06:58:31;9.10;99.90
22666;DHT22;11499;49.486;11.104;2022-10-31T07:00:59;9.30;99.90
22666;DHT22;11499;49.486;11.104;2022-10-31T07:03:25;9.40;99.90
22666;DHT22;11499;49.486;11.104;2022-10-31T07:05:51;9.60;99.90
22666;DHT22;11499;49.486;11.104;2022-10-31T07:11:07;9.80;99.90
22666;DHT22;11499;49.486;11.104;2022-10-31T07:13:33;10.00;99.90
22666;DHT22;11499;49.486;11.104;2022-10-31T07:16:03;10.10;99.90
22666;DHT22;11499;49.486;11.104;2022-10-31T07:18:29;10.20;99.90
22666;DHT22;11499;49.486;11.104;2022-10-31T07:20:55;10.40;99.90
22666;DHT22;11499;49.486;11.104;2022-10-31T07:23:21;10.50;99.90
22666;DHT22;11499;49.486;11.104;2022-10-31T07:25:47;10.60;99.90
22666;DHT22;11499;49.486;11.104;2022-10-31T07:28:12;10.70;99.90
22666;DHT22;11499;49.486;11.104;2022-10-31T07:30:38;10.80;99.90
22666;DHT22;11499;49.486;11.104;2022-10-31T07:33:04;10.80;99.90
22666;DHT22;11499;49.486;11.104;2022-10-31T07:38:29;11.00;99.90
22666;DHT22;11499;49.486;11.104;2022-10-31T07:40:55;11.10;99.90
22666;DHT22;11499;49.486;11.104;2022-10-31T07:43:20;11.10;99.90
22666;DHT22;11499;49.486;11.104;2022-10-31T07:45:51;11.20;99.90
22666;DHT22;11499;49.486;11.104;2022-10-31T07:48:17;11.30;99.90
22666;DHT22;11499;49.486;11.104;2022-10-31T07:50:42;11.50;99.90
22666;DHT22;11499;49.486;11.104;2022-10-31T07:53:10;11.60;99.90
22666;DHT22;11499;49.486;11.104;2022-10-31T07:55:37;11.70;99.90
22666;DHT22;11499;49.486;11.104;2022-10-31T07:58:08;11.90;99.90
22666;DHT22;11499;49.486;11.104;2022-10-31T08:00:35;12.00;99.90
22666;DHT22;11499;49.486;11.104;2022-10-31T08:05:42;12.00;99.90
22666;DHT22;11499;49.486;11.104;2022-10-31T08:08:11;12.20;99.90
22666;DHT22;11499;49.486;11.104;2022-10-31T08:10:38;12.20;99.90
22666;DHT22;11499;49.486;11.104;2022-10-31T08:13:06;12.30;99.90
22666;DHT22;11499;49.486;11.104;2022-10-31T08:15:33;12.40;99.90
22666;DHT22;11499;49.486;11.104;2022-10-31T08:18:02;12.60;99.90
22666;DHT22;11499;49.486;11.104;2022-10-31T08:20:27;12.80;99.90
22666;DHT22;11499;49.486;11.104;2022-10-31T08:23:01;13.00;99.90
22666;DHT22;11499;49.486;11.104;2022-10-31T08:25:29;13.10;99.90
22666;DHT22;11499;49.486;11.104;2022-10-31T08:27:56;13.20;99.90
22666;DHT22;11499;49.486;11.104;2022-10-31T08:33:14;13.40;99.90
22666;DHT22;11499;49.486;11.104;2022-10-31T08:35:40;13.50;99.90
22666;DHT22;11499;49.486;11.104;2022-10-31T08:38:06;13.60;99.90
22666;DHT22;11499;49.486;11.104;2022-10-31T08:40:33;13.80;99.90
22666;DHT22;11499;49.486;11.104;2022-10-31T08:45:28;14.00;99.90
22666;DHT22;11499;49.486;11.104;2022-10-31T08:47:57;14.10;99.90
22666;DHT22;11499;49.486;11.104;2022-10-31T08:50:23;14.20;99.90
22666;DHT22;11499;49.486;11.104;2022-10-31T08:52:49;14.20;99.90
22666;DHT22;11499;49.486;11.104;2022-10-31T08:55:15;14.20;99.90
22666;DHT22;11499;49.486;11.104;2022-10-31T08:59:48;14.30;99.90
22666;DHT22;11499;49.486;11.104;2022-10-31T09:02:14;14.60;99.90
22666;DHT22;11499;49.486;11.104;2022-10-31T09:04:39;14.60;99.90
22666;DHT22;11499;49.486;11.104;2022-10-31T09:07:05;14.70;99.90
22666;DHT22;11499;49.486;11.104;2022-10-31T09:09:30;14.70;99.90
22666;DHT22;11499;49.486;11.104;2022-10-31T09:11:56;14.80;99.90
22666;DHT22;11499;49.486;11.104;2022-10-31T09:14:21;15.00;99.90
22666;DHT22;11499;49.486;11.104;2022-10-31T09:16:47;15.10;99.90
22666;DHT22;11499;49.486;11.104;2022-10-31T09:19:12;15.30;99.90
22666;DHT22;11499;49.486;11.104;2022-10-31T09:21:38;15.50;99.90
22666;DHT22;11499;49.486;11.104;2022-10-31T09:26:42;15.70;99.90
22666;DHT22;11499;49.486;11.104;2022-10-31T09:29:07;15.80;99.90
22666;DHT22;11499;49.486;11.104;2022-10-31T09:31:34;15.90;99.90
22666;DHT22;11499;49.486;11.104;2022-10-31T09:34:00;16.10;99.90
22666;DHT22;11499;49.486;11.104;2022-10-31T09:36:26;16.30;99.90
22666;DHT22;11499;49.486;11.104;2022-10-31T09:38:51;16.30;99.90
22666;DHT22;11499;49.486;11.104;2022-10-31T09:44:21;16.40;99.90
22666;DHT22;11499;49.486;11.104;2022-10-31T09:47:00;16.70;99.90
22666;DHT22;11499;49.486;11.104;2022-10-31T09:49:55;17.00;99.90
22666;DHT22;11499;49.486;11.104;2022-10-31T09:57:15;17.40;99.90
22666;DHT22;11499;49.486;11.104;2022-10-31T09:59:44;17.50;99.90
22666;DHT22;11499;49.486;11.104;2022-10-31T10:05:03;17.60;99.90
22666;DHT22;11499;49.486;11.104;2022-10-31T10:10:11;17.70;99.90
22666;DHT22;11499;49.486;11.104;2022-10-31T10:12:42;17.80;99.90
22666;DHT22;11499;49.486;11.104;2022-10-31T10:15:56;17.80;99.90
22666;DHT22;11499;49.486;11.104;2022-10-31T10:27:30;18.60;99.90
22666;DHT22;11499;49.486;11.104;2022-10-31T10:32:31;18.90;99.90
22666;DHT22;11499;49.486;11.104;2022-10-31T10:35:25;18.60;99.90
22666;DHT22;11499;49.486;11.104;2022-10-31T10:37:58;18.90;99.90
22666;DHT22;11499;49.486;11.104;2022-10-31T10:40:27;19.10;99.90
22666;DHT22;11499;49.486;11.104;2022-10-31T10:43:22;19.20;99.90
22666;DHT22;11499;49.486;11.104;2022-10-31T10:57:08;19.40;99.90
22666;DHT22;11499;49.486;11.104;2022-10-31T10:59:37;19.20;99.90
22666;DHT22;11499;49.486;11.104;2022-10-31T11:02:03;18.90;99.90
22666;DHT22;11499;49.486;11.104;2022-10-31T11:04:36;18.80;99.90
22666;DHT22;11499;49.486;11.104;2022-10-31T11:07:11;19.00;99.90
22666;DHT22;11499;49.486;11.104;2022-10-31T11:09:37;18.90;99.90
22666;DHT22;11499;49.486;11.104;2022-10-31T11:12:14;18.80;99.90
22666;DHT22;11499;49.486;11.104;2022-10-31T11:22:45;18.80;99.90
22666;DHT22;11499;49.486;11.104;2022-10-31T11:25:21;18.90;99.90
22666;DHT22;11499;49.486;11.104;2022-10-31T11:27:47;18.90;99.90
22666;DHT22;11499;49.486;11.104;2022-10-31T11:30:23;19.00;99.90
22666;DHT22;11499;49.486;11.104;2022-10-31T11:32:50;18.90;99.90
22666;DHT22;11499;49.486;11.104;2022-10-31T11:35:22;19.00;99.90
22666;DHT22;11499;49.486;11.104;2022-10-31T11:37:49;19.20;99.90
22666;DHT22;11499;49.486;11.104;2022-10-31T11:43:18;19.20;99.90
22666;DHT22;11499;49.486;11.104;2022-10-31T11:45:44;19.20;99.90
22666;DHT22;11499;49.486;11.104;2022-10-31T11:48:20;19.10;99.90
22666;DHT22;11499;49.486;11.104;2022-10-31T11:50:54;19.30;99.90
22666;DHT22;11499;49.486;11.104;2022-10-31T11:53:33;19.40;99.90
22666;DHT22;11499;49.486;11.104;2022-10-31T11:56:06;19.60;99.90
22666;DHT22;11499;49.486;11.104;2022-10-31T11:58:35;20.00;99.90
22666;DHT22;11499;49.486;11.104;2022-10-31T12:01:00;19.80;99.90
22666;DHT22;11499;49.486;11.104;2022-10-31T12:08:45;19.90;99.90
22666;DHT22;11499;49.486;11.104;2022-10-31T12:11:27;20.30;99.90
22666;DHT22;11499;49.486;11.104;2022-10-31T12:16:50;20.70;99.90
22666;DHT22;11499;49.486;11.104;2022-10-31T12:27:29;20.20;99.90
22666;DHT22;11499;49.486;11.104;2022-10-31T12:30:09;20.70;99.90
22666;DHT22;11499;49.486;11.104;2022-10-31T12:38:28;20.20;99.90
22666;DHT22;11499;49.486;11.104;2022-10-31T12:49:54;20.40;99.90
22666;DHT22;11499;49.486;11.104;2022-10-31T12:55:23;20.30;99.90
22666;DHT22;11499;49.486;11.104;2022-10-31T12:57:56;20.00;99.90
22666;DHT22;11499;49.486;11.104;2022-10-31T13:02:34;19.70;99.90
22666;DHT22;11499;49.486;11.104;2022-10-31T13:07:42;19.50;99.90
22666;DHT22;11499;49.486;11.104;2022-10-31T13:10:29;19.80;99.90
22666;DHT22;11499;49.486;11.104;2022-10-31T13:13:02;19.90;99.90
22666;DHT22;11499;49.486;11.104;2022-10-31T13:15:33;19.80;99.90
22666;DHT22;11499;49.486;11.104;2022-10-31T13:18:04;19.60;99.90
22666;DHT22;11499;49.486;11.104;2022-10-31T13:20:45;19.60;99.90
22666;DHT22;11499;49.486;11.104;2022-10-31T13:23:33;19.60;99.90
22666;DHT22;11499;49.486;11.104;2022-10-31T13:26:03;19.40;99.90
22666;DHT22;11499;49.486;11.104;2022-10-31T13:31:42;19.10;99.90
22666;DHT22;11499;49.486;11.104;2022-10-31T13:34:25;18.80;99.90
22666;DHT22;11499;49.486;11.104;2022-10-31T13:40:14;18.70;99.90
22666;DHT22;11499;49.486;11.104;2022-10-31T13:45:51;19.00;99.90
22666;DHT22;11499;49.486;11.104;2022-10-31T13:50:57;19.00;99.90
22666;DHT22;11499;49.486;11.104;2022-10-31T13:53:40;19.10;99.90
22666;DHT22;11499;49.486;11.104;2022-10-31T13:59:04;19.10;99.90
22666;DHT22;11499;49.486;11.104;2022-10-31T14:01:31;19.20;99.90
22666;DHT22;11499;49.486;11.104;2022-10-31T14:04:16;19.00;99.90
22666;DHT22;11499;49.486;11.104;2022-10-31T14:06:49;18.90;99.90
22666;DHT22;11499;49.486;11.104;2022-10-31T14:09:31;19.10;99.90
22666;DHT22;11499;49.486;11.104;2022-10-31T14:12:01;19.30;99.90
22666;DHT22;11499;49.486;11.104;2022-10-31T14:14:39;19.40;99.90
22666;DHT22;11499;49.486;11.104;2022-10-31T14:17:19;19.30;99.90
22666;DHT22;11499;49.486;11.104;2022-10-31T14:19:58;19.30;99.90
22666;DHT22;11499;49.486;11.104;2022-10-31T14:22:29;19.10;99.90
22666;DHT22;11499;49.486;11.104;2022-10-31T14:26:57;19.00;99.90
22666;DHT22;11499;49.486;11.104;2022-10-31T14:29:25;18.80;99.90
22666;DHT22;11499;49.486;11.104;2022-10-31T14:34:41;18.50;99.90
22666;DHT22;11499;49.486;11.104;2022-10-31T14:37:15;18.40;99.90
22666;DHT22;11499;49.486;11.104;2022-10-31T14:42:54;18.10;99.90
22666;DHT22;11499;49.486;11.104;2022-10-31T14:45:41;18.10;99.90
22666;DHT22;11499;49.486;11.104;2022-10-31T14:48:39;18.10;99.90
22666;DHT22;11499;49.486;11.104;2022-10-31T14:54:07;18.00;99.90
22666;DHT22;11499;49.486;11.104;2022-10-31T14:56:37;17.90;99.90
22666;DHT22;11499;49.486;11.104;2022-10-31T14:59:11;17.90;99.90
22666;DHT22;11499;49.486;11.104;2022-10-31T15:01:38;17.90;99.90
22666;DHT22;11499;49.486;11.104;2022-10-31T15:06:46;17.70;99.90
22666;DHT22;11499;49.486;11.104;2022-10-31T15:09:39;17.60;99.90
22666;DHT22;11499;49.486;11.104;2022-10-31T15:12:28;17.50;99.90
22666;DHT22;11499;49.486;11.104;2022-10-31T15:14:54;17.40;99.90
22666;DHT22;11499;49.486;11.104;2022-10-31T15:20:03;17.30;99.90
22666;DHT22;11499;49.486;11.104;2022-10-31T15:22:30;17.20;99.90
22666;DHT22;11499;49.486;11.104;2022-10-31T15:24:57;17.20;99.90
22666;DHT22;11499;49.486;11.104;2022-10-31T15:27:23;17.20;99.90
22666;DHT22;11499;49.486;11.104;2022-10-31T15:29:51;17.10;99.90
22666;DHT22;11499;49.486;11.104;2022-10-31T15:34:49;17.10;99.90
22666;DHT22;11499;49.486;11.104;2022-10-31T15:37:20;17.00;99.90
22666;DHT22;11499;49.486;11.104;2022-10-31T15:39:47;17.00;99.90
22666;DHT22;11499;49.486;11.104;2022-10-31T15:45:24;16.90;99.90
22666;DHT22;11499;49.486;11.104;2022-10-31T15:48:01;16.70;99.90
22666;DHT22;11499;49.486;11.104;2022-10-31T15:50:29;16.70;99.90
22666;DHT22;11499;49.486;11.104;2022-10-31T15:52:56;16.50;99.90
22666;DHT22;11499;49.486;11.104;2022-10-31T15:55:25;16.40;99.90
22666;DHT22;11499;49.486;11.104;2022-10-31T15:57:55;16.30;99.90
22666;DHT22;11499;49.486;11.104;2022-10-31T16:00:29;16.20;99.90
22666;DHT22;11499;49.486;11.104;2022-10-31T16:05:45;16.00;99.90
22666;DHT22;11499;49.486;11.104;2022-10-31T16:13:40;15.80;99.90
22666;DHT22;11499;49.486;11.104;2022-10-31T16:16:13;15.70;99.90
22666;DHT22;11499;49.486;11.104;2022-10-31T16:18:40;15.60;99.90
22666;DHT22;11499;49.486;11.104;2022-10-31T16:21:07;15.50;99.90
22666;DHT22;11499;49.486;11.104;2022-10-31T16:23:33;15.50;99.90
22666;DHT22;11499;49.486;11.104;2022-10-31T16:25:59;15.50;99.90
22666;DHT22;11499;49.486;11.104;2022-10-31T16:28:26;15.50;99.90
22666;DHT22;11499;49.486;11.104;2022-10-31T16:30:54;15.50;99.90
22666;DHT22;11499;49.486;11.104;2022-10-31T16:33:30;15.50;99.90
22666;DHT22;11499;49.486;11.104;2022-10-31T16:35:59;15.40;99.90
22666;DHT22;11499;49.486;11.104;2022-10-31T16:40:20;15.30;99.90
22666;DHT22;11499;49.486;11.104;2022-10-31T16:42:46;15.10;99.90
22666;DHT22;11499;49.486;11.104;2022-10-31T16:45:19;15.00;99.90
22666;DHT22;11499;49.486;11.104;2022-10-31T16:47:46;15.00;99.90
22666;DHT22;11499;49.486;11.104;2022-10-31T16:50:21;14.90;99.90
22666;DHT22;11499;49.486;11.104;2022-10-31T16:52:47;14.90;99.90
22666;DHT22;11499;49.486;11.104;2022-10-31T16:55:14;15.00;99.90
22666;DHT22;11499;49.486;11.104;2022-10-31T16:57:43;14.90;99.90
22666;DHT22;11499;49.486;11.104;2022-10-31T17:00:13;14.80;99.90
22666;DHT22;11499;49.486;11.104;2022-10-31T17:02:39;14.70;99.90
22666;DHT22;11499;49.486;11.104;2022-10-31T17:07:40;14.50;99.90
22666;DHT22;11499;49.486;11.104;2022-10-31T17:10:07;14.30;99.90
22666;DHT22;11499;49.486;11.104;2022-10-31T17:12:33;14.20;99.90
22666;DHT22;11499;49.486;11.104;2022-10-31T17:14:58;14.10;99.90
22666;DHT22;11499;49.486;11.104;2022-10-31T17:17:24;14.00;99.90
22666;DHT22;11499;49.486;11.104;2022-10-31T17:19:50;13.90;99.90
22666;DHT22;11499;49.486;11.104;2022-10-31T17:22:16;13.80;99.90
22666;DHT22;11499;49.486;11.104;2022-10-31T17:24:41;13.80;99.90
22666;DHT22;11499;49.486;11.104;2022-10-31T17:27:07;13.70;99.90
22666;DHT22;11499;49.486;11.104;2022-10-31T17:29:32;13.60;99.90
22666;DHT22;11499;49.486;11.104;2022-10-31T17:34:21;13.60;99.90
22666;DHT22;11499;49.486;11.104;2022-10-31T17:36:50;13.50;99.90
22666;DHT22;11499;49.486;11.104;2022-10-31T17:39:16;13.40;99.90
22666;DHT22;11499;49.486;11.104;2022-10-31T17:41:42;13.30;99.90
22666;DHT22;11499;49.486;11.104;2022-10-31T17:44:10;13.30;99.90
22666;DHT22;11499;49.486;11.104;2022-10-31T17:46:36;13.20;99.90
22666;DHT22;11499;49.486;11.104;2022-10-31T17:49:02;13.00;99.90
22666;DHT22;11499;49.486;11.104;2022-10-31T17:51:29;13.00;99.90
22666;DHT22;11499;49.486;11.104;2022-10-31T17:53:56;12.90;99.90
22666;DHT22;11499;49.486;11.104;2022-10-31T17:56:21;12.80;99.90
22666;DHT22;11499;49.486;11.104;2022-10-31T18:01:19;12.80;99.90
22666;DHT22;11499;49.486;11.104;2022-10-31T18:03:45;12.60;99.90
22666;DHT22;11499;49.486;11.104;2022-10-31T18:06:11;12.70;99.90
22666;DHT22;11499;49.486;11.104;2022-10-31T18:08:41;12.50;99.90
22666;DHT22;11499;49.486;11.104;2022-10-31T18:11:15;12.40;99.90
22666;DHT22;11499;49.486;11.104;2022-10-31T18:13:41;12.40;99.90
22666;DHT22;11499;49.486;11.104;2022-10-31T18:16:11;12.30;99.90
22666;DHT22;11499;49.486;11.104;2022-10-31T18:18:37;12.20;99.90
22666;DHT22;11499;49.486;11.104;2022-10-31T18:21:03;12.20;99.90
22666;DHT22;11499;49.486;11.104;2022-10-31T18:23:28;12.00;99.90
22666;DHT22;11499;49.486;11.104;2022-10-31T18:28:30;12.00;99.90
22666;DHT22;11499;49.486;11.104;2022-10-31T18:30:58;12.00;99.90
22666;DHT22;11499;49.486;11.104;2022-10-31T18:33:24;11.90;99.90
22666;DHT22;11499;49.486;11.104;2022-10-31T18:35:50;11.90;99.90
22666;DHT22;11499;49.486;11.104;2022-10-31T18:38:16;11.80;99.90
22666;DHT22;11499;49.486;11.104;2022-10-31T18:40:41;11.80;99.90
22666;DHT22;11499;49.486;11.104;2022-10-31T18:43:07;11.90;99.90
22666;DHT22;11499;49.486;11.104;2022-10-31T18:45:32;12.00;99.90
22666;DHT22;11499;49.486;11.104;2022-10-31T18:47:58;11.90;99.90
22666;DHT22;11499;49.486;11.104;2022-10-31T18:50:23;11.90;99.90
22666;DHT22;11499;49.486;11.104;2022-10-31T18:52:49;11.70;99.90
22666;DHT22;11499;49.486;11.104;2022-10-31T18:57:52;11.60;99.90
22666;DHT22;11499;49.486;11.104;2022-10-31T19:00:18;11.60;99.90
22666;DHT22;11499;49.486;11.104;2022-10-31T19:02:44;11.60;99.90
22666;DHT22;11499;49.486;11.104;2022-10-31T19:05:09;11.50;99.90
22666;DHT22;11499;49.486;11.104;2022-10-31T19:07:35;11.40;99.90
22666;DHT22;11499;49.486;11.104;2022-10-31T19:10:00;11.30;99.90
22666;DHT22;11499;49.486;11.104;2022-10-31T19:12:26;11.30;99.90
22666;DHT22;11499;49.486;11.104;2022-10-31T19:14:51;11.20;99.90